sensor_id;sensor_type;location;lat;lon;timestamp;P1;durP1;ratioP1;P2;durP2;ratioP2
6019;SDS011;3038;51.122;6.840;2022-10-16T00:01:17;3.13;;;2.40;;
6019;SDS011;3038;51.122;6.840;2022-10-16T00:03:45;6.30;;;3.30;;
6019;SDS011;3038;51.122;6.840;2022-10-16T00:06:11;3.20;;;2.67;;
6019;SDS011;3038;51.122;6.840;2022-10-16T00:08:38;4.10;;;2.80;;
6019;SDS011;3038;51.122;6.840;2022-10-16T00:13:35;2.70;;;2.50;;
6019;SDS011;3038;51.122;6.840;2022-10-16T00:16:03;4.73;;;3.10;;
6019;SDS011;3038;51.122;6.840;2022-10-16T00:18:29;2.63;;;2.43;;
6019;SDS011;3038;51.122;6.840;2022-10-16T00:20:55;4.50;;;3.20;;
6019;SDS011;3038;51.122;6.840;2022-10-16T00:23:21;4.50;;;2.97;;
6019;SDS011;3038;51.122;6.840;2022-10-16T00:25:56;3.57;;;3.27;;
6019;SDS011;3038;51.122;6.840;2022-10-16T00:28:23;3.73;;;2.80;;
6019;SDS011;3038;51.122;6.840;2022-10-16T00:30:48;2.70;;;2.50;;
6019;SDS011;3038;51.122;6.840;2022-10-16T00:33:14;3.10;;;2.80;;
6019;SDS011;3038;51.122;6.840;2022-10-16T00:35:39;4.53;;;3.63;;
6019;SDS011;3038;51.122;6.840;2022-10-16T00:38:04;3.33;;;3.13;;
6019;SDS011;3038;51.122;6.840;2022-10-16T00:40:30;4.73;;;3.00;;
6019;SDS011;3038;51.122;6.840;2022-10-16T00:42:56;3.63;;;3.33;;
6019;SDS011;3038;51.122;6.840;2022-10-16T00:45:22;3.60;;;2.67;;
6019;SDS011;3038;51.122;6.840;2022-10-16T00:47:47;2.70;;;2.50;;
6019;SDS011;3038;51.122;6.840;2022-10-16T00:50:18;3.87;;;2.50;;
6019;SDS011;3038;51.122;6.840;2022-10-16T00:52:58;3.97;;;3.33;;
6019;SDS011;3038;51.122;6.840;2022-10-16T00:55:25;3.10;;;2.80;;
6019;SDS011;3038;51.122;6.840;2022-10-16T00:57:51;3.23;;;2.93;;
6019;SDS011;3038;51.122;6.840;2022-10-16T01:00:21;5.23;;;3.00;;
6019;SDS011;3038;51.122;6.840;2022-10-16T01:02:55;3.10;;;2.90;;
6019;SDS011;3038;51.122;6.840;2022-10-16T01:05:22;3.47;;;2.67;;
6019;SDS011;3038;51.122;6.840;2022-10-16T01:07:56;3.40;;;2.80;;
6019;SDS011;3038;51.122;6.840;2022-10-16T01:10:36;2.80;;;2.60;;
6019;SDS011;3038;51.122;6.840;2022-10-16T01:18:39;3.70;;;3.20;;
6019;SDS011;3038;51.122;6.840;2022-10-16T01:21:10;3.20;;;2.90;;
6019;SDS011;3038;51.122;6.840;2022-10-16T01:29:53;3.30;;;3.10;;
6019;SDS011;3038;51.122;6.840;2022-10-16T01:35:14;4.00;;;3.13;;
6019;SDS011;3038;51.122;6.840;2022-10-16T01:37:48;5.27;;;4.00;;
6019;SDS011;3038;51.122;6.840;2022-10-16T01:40:19;5.30;;;3.67;;
6019;SDS011;3038;51.122;6.840;2022-10-16T01:42:47;3.97;;;3.67;;
6019;SDS011;3038;51.122;6.840;2022-10-16T01:45:18;3.70;;;3.50;;
6019;SDS011;3038;51.122;6.840;2022-10-16T01:47:45;4.23;;;3.80;;
6019;SDS011;3038;51.122;6.840;2022-10-16T01:50:13;4.10;;;3.80;;
6019;SDS011;3038;51.122;6.840;2022-10-16T01:52:42;3.80;;;3.50;;
6019;SDS011;3038;51.122;6.840;2022-10-16T01:55:10;5.13;;;3.87;;
6019;SDS011;3038;51.122;6.840;2022-10-16T01:57:44;3.50;;;3.30;;
6019;SDS011;3038;51.122;6.840;2022-10-16T02:00:14;3.87;;;3.40;;
6019;SDS011;3038;51.122;6.840;2022-10-16T02:02:43;4.60;;;3.27;;
6019;SDS011;3038;51.122;6.840;2022-10-16T02:05:16;3.63;;;3.43;;
6019;SDS011;3038;51.122;6.840;2022-10-16T02:07:47;3.83;;;3.53;;
6019;SDS011;3038;51.122;6.840;2022-10-16T02:10:16;3.60;;;3.30;;
6019;SDS011;3038;51.122;6.840;2022-10-16T02:12:44;3.70;;;3.50;;
6019;SDS011;3038;51.122;6.840;2022-10-16T02:15:14;4.00;;;3.60;;
6019;SDS011;3038;51.122;6.840;2022-10-16T02:17:40;3.80;;;3.50;;
6019;SDS011;3038;51.122;6.840;2022-10-16T02:20:05;4.63;;;4.23;;
6019;SDS011;3038;51.122;6.840;2022-10-16T02:25:12;4.27;;;3.67;;
6019;SDS011;3038;51.122;6.840;2022-10-16T02:27:47;3.87;;;3.50;;
6019;SDS011;3038;51.122;6.840;2022-10-16T02:30:38;4.00;;;3.70;;
6019;SDS011;3038;51.122;6.840;2022-10-16T02:33:09;4.30;;;3.90;;
6019;SDS011;3038;51.122;6.840;2022-10-16T02:35:38;4.27;;;3.70;;
6019;SDS011;3038;51.122;6.840;2022-10-16T02:38:05;3.33;;;3.10;;
6019;SDS011;3038;51.122;6.840;2022-10-16T02:40:32;2.80;;;2.53;;
6019;SDS011;3038;51.122;6.840;2022-10-16T02:42:58;2.67;;;2.47;;
6019;SDS011;3038;51.122;6.840;2022-10-16T02:45:24;3.43;;;2.73;;
6019;SDS011;3038;51.122;6.840;2022-10-16T02:47:50;2.63;;;2.43;;
6019;SDS011;3038;51.122;6.840;2022-10-16T02:50:15;2.70;;;2.50;;
6019;SDS011;3038;51.122;6.840;2022-10-16T02:52:41;2.27;;;2.17;;
6019;SDS011;3038;51.122;6.840;2022-10-16T02:55:06;2.40;;;1.93;;
6019;SDS011;3038;51.122;6.840;2022-10-16T02:57:32;2.00;;;1.90;;
6019;SDS011;3038;51.122;6.840;2022-10-16T02:59:57;3.10;;;1.90;;
6019;SDS011;3038;51.122;6.840;2022-10-16T03:02:23;3.23;;;2.30;;
6019;SDS011;3038;51.122;6.840;2022-10-16T03:04:49;2.30;;;2.10;;
6019;SDS011;3038;51.122;6.840;2022-10-16T03:07:15;1.93;;;1.83;;
6019;SDS011;3038;51.122;6.840;2022-10-16T03:09:40;2.60;;;2.40;;
6019;SDS011;3038;51.122;6.840;2022-10-16T03:12:05;3.23;;;2.50;;
6019;SDS011;3038;51.122;6.840;2022-10-16T03:14:31;3.43;;;2.10;;
6019;SDS011;3038;51.122;6.840;2022-10-16T03:16:57;2.73;;;2.10;;
6019;SDS011;3038;51.122;6.840;2022-10-16T03:19:22;2.23;;;2.03;;
6019;SDS011;3038;51.122;6.840;2022-10-16T03:21:47;2.80;;;2.13;;
6019;SDS011;3038;51.122;6.840;2022-10-16T03:24:13;2.10;;;2.00;;
6019;SDS011;3038;51.122;6.840;2022-10-16T03:26:38;5.33;;;2.63;;
6019;SDS011;3038;51.122;6.840;2022-10-16T03:29:03;3.93;;;2.20;;
6019;SDS011;3038;51.122;6.840;2022-10-16T03:31:29;3.33;;;2.20;;
6019;SDS011;3038;51.122;6.840;2022-10-16T03:33:55;2.13;;;2.03;;
6019;SDS011;3038;51.122;6.840;2022-10-16T03:36:21;1.97;;;1.83;;
6019;SDS011;3038;51.122;6.840;2022-10-16T03:38:46;3.63;;;1.70;;
6019;SDS011;3038;51.122;6.840;2022-10-16T03:41:11;2.37;;;2.00;;
6019;SDS011;3038;51.122;6.840;2022-10-16T03:43:38;4.10;;;2.00;;
6019;SDS011;3038;51.122;6.840;2022-10-16T03:46:03;2.10;;;1.90;;
6019;SDS011;3038;51.122;6.840;2022-10-16T03:48:29;2.07;;;1.97;;
6019;SDS011;3038;51.122;6.840;2022-10-16T03:50:54;1.90;;;1.80;;
6019;SDS011;3038;51.122;6.840;2022-10-16T03:53:20;1.97;;;1.83;;
6019;SDS011;3038;51.122;6.840;2022-10-16T03:55:45;1.80;;;1.70;;
6019;SDS011;3038;51.122;6.840;2022-10-16T03:58:11;2.00;;;1.87;;
6019;SDS011;3038;51.122;6.840;2022-10-16T04:00:40;1.93;;;1.73;;
6019;SDS011;3038;51.122;6.840;2022-10-16T04:03:06;2.20;;;2.00;;
6019;SDS011;3038;51.122;6.840;2022-10-16T04:05:32;4.23;;;2.20;;
6019;SDS011;3038;51.122;6.840;2022-10-16T04:07:57;1.80;;;1.70;;
6019;SDS011;3038;51.122;6.840;2022-10-16T04:10:23;2.30;;;1.77;;
6019;SDS011;3038;51.122;6.840;2022-10-16T04:12:48;3.33;;;1.93;;
6019;SDS011;3038;51.122;6.840;2022-10-16T04:15:13;1.70;;;1.60;;
6019;SDS011;3038;51.122;6.840;2022-10-16T04:17:39;1.83;;;1.60;;
6019;SDS011;3038;51.122;6.840;2022-10-16T04:20:04;1.53;;;1.43;;
6019;SDS011;3038;51.122;6.840;2022-10-16T04:22:30;1.60;;;1.50;;
6019;SDS011;3038;51.122;6.840;2022-10-16T04:24:55;1.60;;;1.50;;
6019;SDS011;3038;51.122;6.840;2022-10-16T04:27:21;1.83;;;1.37;;
6019;SDS011;3038;51.122;6.840;2022-10-16T04:29:46;1.87;;;1.77;;
6019;SDS011;3038;51.122;6.840;2022-10-16T04:32:11;2.23;;;2.03;;
6019;SDS011;3038;51.122;6.840;2022-10-16T04:34:38;2.30;;;1.67;;
6019;SDS011;3038;51.122;6.840;2022-10-16T04:37:04;2.23;;;1.60;;
6019;SDS011;3038;51.122;6.840;2022-10-16T04:39:30;1.87;;;1.60;;
6019;SDS011;3038;51.122;6.840;2022-10-16T04:41:55;1.80;;;1.70;;
6019;SDS011;3038;51.122;6.840;2022-10-16T04:44:20;2.33;;;1.80;;
6019;SDS011;3038;51.122;6.840;2022-10-16T04:46:46;2.20;;;1.60;;
6019;SDS011;3038;51.122;6.840;2022-10-16T04:49:11;2.10;;;1.90;;
6019;SDS011;3038;51.122;6.840;2022-10-16T04:51:36;2.17;;;1.80;;
6019;SDS011;3038;51.122;6.840;2022-10-16T04:54:02;2.00;;;1.80;;
6019;SDS011;3038;51.122;6.840;2022-10-16T04:56:27;1.80;;;1.70;;
6019;SDS011;3038;51.122;6.840;2022-10-16T04:58:52;4.07;;;2.13;;
6019;SDS011;3038;51.122;6.840;2022-10-16T05:01:18;3.10;;;2.03;;
6019;SDS011;3038;51.122;6.840;2022-10-16T05:03:43;3.53;;;2.07;;
6019;SDS011;3038;51.122;6.840;2022-10-16T05:06:08;2.17;;;1.90;;
6019;SDS011;3038;51.122;6.840;2022-10-16T05:08:34;3.77;;;2.20;;
6019;SDS011;3038;51.122;6.840;2022-10-16T05:10:59;2.77;;;2.57;;
6019;SDS011;3038;51.122;6.840;2022-10-16T05:13:25;2.00;;;1.90;;
6019;SDS011;3038;51.122;6.840;2022-10-16T05:15:51;2.90;;;2.60;;
6019;SDS011;3038;51.122;6.840;2022-10-16T05:18:16;2.73;;;2.20;;
6019;SDS011;3038;51.122;6.840;2022-10-16T05:20:42;5.77;;;2.10;;
6019;SDS011;3038;51.122;6.840;2022-10-16T05:23:07;9.23;;;2.60;;
6019;SDS011;3038;51.122;6.840;2022-10-16T05:25:35;5.93;;;3.13;;
6019;SDS011;3038;51.122;6.840;2022-10-16T05:28:00;3.27;;;2.97;;
6019;SDS011;3038;51.122;6.840;2022-10-16T05:30:26;2.87;;;2.60;;
6019;SDS011;3038;51.122;6.840;2022-10-16T05:32:51;2.60;;;2.07;;
6019;SDS011;3038;51.122;6.840;2022-10-16T05:35:17;2.37;;;2.17;;
6019;SDS011;3038;51.122;6.840;2022-10-16T05:37:43;2.30;;;2.10;;
6019;SDS011;3038;51.122;6.840;2022-10-16T05:40:09;2.63;;;2.43;;
6019;SDS011;3038;51.122;6.840;2022-10-16T05:42:35;2.77;;;2.57;;
6019;SDS011;3038;51.122;6.840;2022-10-16T05:45:01;2.00;;;1.90;;
6019;SDS011;3038;51.122;6.840;2022-10-16T05:47:26;4.40;;;2.60;;
6019;SDS011;3038;51.122;6.840;2022-10-16T05:49:52;3.10;;;2.20;;
6019;SDS011;3038;51.122;6.840;2022-10-16T05:52:18;2.97;;;2.50;;
6019;SDS011;3038;51.122;6.840;2022-10-16T05:54:43;3.03;;;2.73;;
6019;SDS011;3038;51.122;6.840;2022-10-16T05:57:08;2.90;;;2.50;;
6019;SDS011;3038;51.122;6.840;2022-10-16T05:59:34;3.10;;;2.90;;
6019;SDS011;3038;51.122;6.840;2022-10-16T06:01:59;3.07;;;2.53;;
6019;SDS011;3038;51.122;6.840;2022-10-16T06:04:25;2.80;;;2.50;;
6019;SDS011;3038;51.122;6.840;2022-10-16T06:06:50;3.77;;;2.70;;
6019;SDS011;3038;51.122;6.840;2022-10-16T06:09:15;2.77;;;2.57;;
6019;SDS011;3038;51.122;6.840;2022-10-16T06:11:41;2.70;;;2.50;;
6019;SDS011;3038;51.122;6.840;2022-10-16T06:14:07;2.80;;;2.60;;
6019;SDS011;3038;51.122;6.840;2022-10-16T06:16:34;3.27;;;2.97;;
6019;SDS011;3038;51.122;6.840;2022-10-16T06:19:00;2.80;;;2.50;;
6019;SDS011;3038;51.122;6.840;2022-10-16T06:21:26;2.90;;;2.70;;
6019;SDS011;3038;51.122;6.840;2022-10-16T06:23:53;4.40;;;2.93;;
6019;SDS011;3038;51.122;6.840;2022-10-16T06:26:21;3.70;;;3.40;;
6019;SDS011;3038;51.122;6.840;2022-10-16T06:28:48;7.50;;;4.10;;
6019;SDS011;3038;51.122;6.840;2022-10-16T06:31:14;3.00;;;2.80;;
6019;SDS011;3038;51.122;6.840;2022-10-16T06:33:40;3.07;;;2.87;;
6019;SDS011;3038;51.122;6.840;2022-10-16T06:36:07;2.87;;;2.77;;
6019;SDS011;3038;51.122;6.840;2022-10-16T06:38:34;7.07;;;3.17;;
6019;SDS011;3038;51.122;6.840;2022-10-16T06:41:00;4.03;;;3.00;;
6019;SDS011;3038;51.122;6.840;2022-10-16T06:43:30;3.70;;;3.40;;
6019;SDS011;3038;51.122;6.840;2022-10-16T06:46:03;3.87;;;3.57;;
6019;SDS011;3038;51.122;6.840;2022-10-16T06:48:30;5.73;;;4.30;;
6019;SDS011;3038;51.122;6.840;2022-10-16T06:51:00;3.37;;;3.07;;
6019;SDS011;3038;51.122;6.840;2022-10-16T06:53:32;3.40;;;3.10;;
6019;SDS011;3038;51.122;6.840;2022-10-16T06:56:06;5.10;;;4.70;;
6019;SDS011;3038;51.122;6.840;2022-10-16T06:58:36;3.90;;;3.60;;
6019;SDS011;3038;51.122;6.840;2022-10-16T07:01:01;3.00;;;2.80;;
6019;SDS011;3038;51.122;6.840;2022-10-16T07:03:27;3.20;;;2.90;;
6019;SDS011;3038;51.122;6.840;2022-10-16T07:05:53;6.10;;;3.17;;
6019;SDS011;3038;51.122;6.840;2022-10-16T07:08:18;5.53;;;2.70;;
6019;SDS011;3038;51.122;6.840;2022-10-16T07:10:43;3.40;;;3.10;;
6019;SDS011;3038;51.122;6.840;2022-10-16T07:13:09;9.80;;;3.20;;
6019;SDS011;3038;51.122;6.840;2022-10-16T07:15:38;3.13;;;2.93;;
6019;SDS011;3038;51.122;6.840;2022-10-16T07:18:03;3.10;;;2.73;;
6019;SDS011;3038;51.122;6.840;2022-10-16T07:20:28;2.90;;;2.70;;
6019;SDS011;3038;51.122;6.840;2022-10-16T07:22:54;2.97;;;2.70;;
6019;SDS011;3038;51.122;6.840;2022-10-16T07:25:19;2.90;;;2.60;;
6019;SDS011;3038;51.122;6.840;2022-10-16T07:27:44;4.30;;;3.00;;
6019;SDS011;3038;51.122;6.840;2022-10-16T07:30:10;3.10;;;2.80;;
6019;SDS011;3038;51.122;6.840;2022-10-16T07:32:35;4.73;;;2.93;;
6019;SDS011;3038;51.122;6.840;2022-10-16T07:35:01;3.20;;;2.90;;
6019;SDS011;3038;51.122;6.840;2022-10-16T07:37:26;2.60;;;2.40;;
6019;SDS011;3038;51.122;6.840;2022-10-16T07:39:52;3.33;;;3.13;;
6019;SDS011;3038;51.122;6.840;2022-10-16T07:42:17;2.80;;;2.60;;
6019;SDS011;3038;51.122;6.840;2022-10-16T07:44:42;3.13;;;2.83;;
6019;SDS011;3038;51.122;6.840;2022-10-16T07:47:08;5.20;;;2.70;;
6019;SDS011;3038;51.122;6.840;2022-10-16T07:49:33;2.70;;;2.50;;
6019;SDS011;3038;51.122;6.840;2022-10-16T07:51:59;2.80;;;2.60;;
6019;SDS011;3038;51.122;6.840;2022-10-16T07:54:24;3.03;;;2.70;;
6019;SDS011;3038;51.122;6.840;2022-10-16T07:56:49;3.50;;;3.20;;
6019;SDS011;3038;51.122;6.840;2022-10-16T07:59:15;4.13;;;2.70;;
6019;SDS011;3038;51.122;6.840;2022-10-16T08:01:40;2.67;;;2.40;;
6019;SDS011;3038;51.122;6.840;2022-10-16T08:04:07;3.57;;;2.37;;
6019;SDS011;3038;51.122;6.840;2022-10-16T08:06:35;4.27;;;2.03;;
6019;SDS011;3038;51.122;6.840;2022-10-16T08:09:04;3.17;;;2.20;;
6019;SDS011;3038;51.122;6.840;2022-10-16T08:11:30;2.60;;;1.87;;
6019;SDS011;3038;51.122;6.840;2022-10-16T08:13:55;2.10;;;1.90;;
6019;SDS011;3038;51.122;6.840;2022-10-16T08:16:21;3.50;;;2.00;;
6019;SDS011;3038;51.122;6.840;2022-10-16T08:18:46;2.27;;;2.07;;
6019;SDS011;3038;51.122;6.840;2022-10-16T08:21:13;2.80;;;1.87;;
6019;SDS011;3038;51.122;6.840;2022-10-16T08:23:41;3.10;;;2.63;;
6019;SDS011;3038;51.122;6.840;2022-10-16T08:26:07;2.60;;;2.00;;
6019;SDS011;3038;51.122;6.840;2022-10-16T08:28:33;3.80;;;1.80;;
6019;SDS011;3038;51.122;6.840;2022-10-16T08:31:09;2.33;;;2.13;;
6019;SDS011;3038;51.122;6.840;2022-10-16T08:33:37;3.70;;;1.93;;
6019;SDS011;3038;51.122;6.840;2022-10-16T08:36:03;1.97;;;1.87;;
6019;SDS011;3038;51.122;6.840;2022-10-16T08:38:30;2.20;;;1.97;;
6019;SDS011;3038;51.122;6.840;2022-10-16T08:49:08;2.93;;;1.70;;
6019;SDS011;3038;51.122;6.840;2022-10-16T08:51:38;3.03;;;1.90;;
6019;SDS011;3038;51.122;6.840;2022-10-16T08:54:04;3.70;;;1.47;;
6019;SDS011;3038;51.122;6.840;2022-10-16T08:56:36;2.77;;;1.77;;
6019;SDS011;3038;51.122;6.840;2022-10-16T08:59:01;3.20;;;1.80;;
6019;SDS011;3038;51.122;6.840;2022-10-16T09:01:38;2.90;;;1.60;;
6019;SDS011;3038;51.122;6.840;2022-10-16T09:07:16;3.77;;;1.60;;
6019;SDS011;3038;51.122;6.840;2022-10-16T09:09:51;2.03;;;1.30;;
6019;SDS011;3038;51.122;6.840;2022-10-16T09:12:36;2.30;;;1.67;;
6019;SDS011;3038;51.122;6.840;2022-10-16T09:16:12;2.57;;;2.00;;
6019;SDS011;3038;51.122;6.840;2022-10-16T09:18:19;5.27;;;1.77;;
6019;SDS011;3038;51.122;6.840;2022-10-16T09:20:53;2.10;;;1.90;;
6019;SDS011;3038;51.122;6.840;2022-10-16T09:23:26;2.90;;;1.30;;
6019;SDS011;3038;51.122;6.840;2022-10-16T09:25:53;1.90;;;1.60;;
6019;SDS011;3038;51.122;6.840;2022-10-16T09:28:20;2.93;;;1.50;;
6019;SDS011;3038;51.122;6.840;2022-10-16T09:30:45;2.93;;;1.43;;
6019;SDS011;3038;51.122;6.840;2022-10-16T09:33:13;4.90;;;1.70;;
6019;SDS011;3038;51.122;6.840;2022-10-16T09:35:40;1.97;;;1.40;;
6019;SDS011;3038;51.122;6.840;2022-10-16T09:38:21;9.83;;;1.93;;
6019;SDS011;3038;51.122;6.840;2022-10-16T09:40:47;2.60;;;1.57;;
6019;SDS011;3038;51.122;6.840;2022-10-16T09:45:53;3.20;;;1.40;;
6019;SDS011;3038;51.122;6.840;2022-10-16T09:48:42;2.17;;;1.30;;
6019;SDS011;3038;51.122;6.840;2022-10-16T09:56:32;2.20;;;1.37;;
6019;SDS011;3038;51.122;6.840;2022-10-16T09:59:02;3.77;;;1.83;;
6019;SDS011;3038;51.122;6.840;2022-10-16T10:01:56;1.90;;;1.40;;
6019;SDS011;3038;51.122;6.840;2022-10-16T10:04:24;1.80;;;1.03;;
6019;SDS011;3038;51.122;6.840;2022-10-16T10:06:54;2.10;;;1.40;;
6019;SDS011;3038;51.122;6.840;2022-10-16T10:09:24;2.20;;;1.30;;
6019;SDS011;3038;51.122;6.840;2022-10-16T10:11:57;5.50;;;1.20;;
6019;SDS011;3038;51.122;6.840;2022-10-16T10:14:37;2.97;;;1.30;;
6019;SDS011;3038;51.122;6.840;2022-10-16T10:19:36;3.20;;;1.40;;
6019;SDS011;3038;51.122;6.840;2022-10-16T10:22:13;1.40;;;1.03;;
6019;SDS011;3038;51.122;6.840;2022-10-16T10:24:42;1.80;;;1.50;;
6019;SDS011;3038;51.122;6.840;2022-10-16T10:27:11;2.60;;;1.30;;
6019;SDS011;3038;51.122;6.840;2022-10-16T10:32:37;1.20;;;0.93;;
6019;SDS011;3038;51.122;6.840;2022-10-16T10:42:55;1.30;;;0.90;;
6019;SDS011;3038;51.122;6.840;2022-10-16T10:45:37;1.73;;;1.10;;
6019;SDS011;3038;51.122;6.840;2022-10-16T10:48:06;3.07;;;1.20;;
6019;SDS011;3038;51.122;6.840;2022-10-16T10:50:49;1.30;;;1.10;;
6019;SDS011;3038;51.122;6.840;2022-10-16T10:53:35;1.83;;;1.37;;
6019;SDS011;3038;51.122;6.840;2022-10-16T10:56:19;2.30;;;1.30;;
6019;SDS011;3038;51.122;6.840;2022-10-16T11:07:33;6.57;;;6.07;;
6019;SDS011;3038;51.122;6.840;2022-10-16T11:10:04;3.30;;;3.00;;
6019;SDS011;3038;51.122;6.840;2022-10-16T11:12:39;2.57;;;1.67;;
6019;SDS011;3038;51.122;6.840;2022-10-16T11:15:14;2.90;;;1.40;;
6019;SDS011;3038;51.122;6.840;2022-10-16T11:17:45;5.10;;;1.90;;
6019;SDS011;3038;51.122;6.840;2022-10-16T11:20:21;2.67;;;1.63;;
6019;SDS011;3038;51.122;6.840;2022-10-16T11:25:31;4.17;;;1.87;;
6019;SDS011;3038;51.122;6.840;2022-10-16T11:28:03;1.60;;;1.10;;
6019;SDS011;3038;51.122;6.840;2022-10-16T11:30:55;2.60;;;1.57;;
6019;SDS011;3038;51.122;6.840;2022-10-16T11:33:32;3.40;;;1.30;;
6019;SDS011;3038;51.122;6.840;2022-10-16T11:36:23;2.70;;;1.17;;
6019;SDS011;3038;51.122;6.840;2022-10-16T11:39:19;2.13;;;1.17;;
6019;SDS011;3038;51.122;6.840;2022-10-16T11:44:46;2.37;;;1.10;;
6019;SDS011;3038;51.122;6.840;2022-10-16T11:47:24;2.50;;;1.17;;
6019;SDS011;3038;51.122;6.840;2022-10-16T11:55:36;1.93;;;1.10;;
6019;SDS011;3038;51.122;6.840;2022-10-16T11:58:05;2.80;;;1.40;;
6019;SDS011;3038;51.122;6.840;2022-10-16T12:00:42;2.20;;;1.67;;
6019;SDS011;3038;51.122;6.840;2022-10-16T12:03:33;1.83;;;1.33;;
6019;SDS011;3038;51.122;6.840;2022-10-16T12:08:40;1.80;;;1.40;;
6019;SDS011;3038;51.122;6.840;2022-10-16T12:11:09;2.60;;;1.50;;
6019;SDS011;3038;51.122;6.840;2022-10-16T12:13:51;2.60;;;1.20;;
6019;SDS011;3038;51.122;6.840;2022-10-16T12:18:44;1.87;;;1.30;;
6019;SDS011;3038;51.122;6.840;2022-10-16T12:21:15;2.33;;;1.27;;
6019;SDS011;3038;51.122;6.840;2022-10-16T12:23:51;2.13;;;1.30;;
6019;SDS011;3038;51.122;6.840;2022-10-16T12:26:28;2.20;;;1.23;;
6019;SDS011;3038;51.122;6.840;2022-10-16T12:29:09;1.70;;;1.07;;
6019;SDS011;3038;51.122;6.840;2022-10-16T12:31:47;1.90;;;1.33;;
6019;SDS011;3038;51.122;6.840;2022-10-16T12:34:22;2.20;;;0.97;;
6019;SDS011;3038;51.122;6.840;2022-10-16T12:36:52;5.03;;;1.40;;
6019;SDS011;3038;51.122;6.840;2022-10-16T12:39:20;1.43;;;1.17;;
6019;SDS011;3038;51.122;6.840;2022-10-16T12:41:47;1.57;;;1.20;;
6019;SDS011;3038;51.122;6.840;2022-10-16T12:44:23;1.67;;;1.27;;
6019;SDS011;3038;51.122;6.840;2022-10-16T12:46:51;2.30;;;1.70;;
6019;SDS011;3038;51.122;6.840;2022-10-16T12:51:55;2.33;;;1.20;;
6019;SDS011;3038;51.122;6.840;2022-10-16T13:02:52;3.97;;;1.30;;
6019;SDS011;3038;51.122;6.840;2022-10-16T13:17:00;1.97;;;1.27;;
6019;SDS011;3038;51.122;6.840;2022-10-16T13:25:01;1.73;;;0.90;;
6019;SDS011;3038;51.122;6.840;2022-10-16T13:30:16;4.30;;;1.73;;
6019;SDS011;3038;51.122;6.840;2022-10-16T13:32:52;6.40;;;1.33;;
6019;SDS011;3038;51.122;6.840;2022-10-16T13:35:27;1.40;;;0.80;;
6019;SDS011;3038;51.122;6.840;2022-10-16T13:40:50;1.77;;;0.90;;
6019;SDS011;3038;51.122;6.840;2022-10-16T13:43:36;1.30;;;0.70;;
6019;SDS011;3038;51.122;6.840;2022-10-16T13:48:44;5.17;;;1.60;;
6019;SDS011;3038;51.122;6.840;2022-10-16T13:51:20;1.10;;;0.80;;
6019;SDS011;3038;51.122;6.840;2022-10-16T13:53:46;1.47;;;0.73;;
6019;SDS011;3038;51.122;6.840;2022-10-16T13:56:12;1.57;;;1.00;;
6019;SDS011;3038;51.122;6.840;2022-10-16T13:58:40;2.13;;;0.90;;
6019;SDS011;3038;51.122;6.840;2022-10-16T14:01:15;3.53;;;1.00;;
6019;SDS011;3038;51.122;6.840;2022-10-16T14:03:53;2.40;;;0.90;;
6019;SDS011;3038;51.122;6.840;2022-10-16T14:06:25;3.83;;;1.00;;
6019;SDS011;3038;51.122;6.840;2022-10-16T14:08:53;1.00;;;0.80;;
6019;SDS011;3038;51.122;6.840;2022-10-16T14:11:24;2.53;;;0.80;;
6019;SDS011;3038;51.122;6.840;2022-10-16T14:13:50;2.20;;;1.00;;
6019;SDS011;3038;51.122;6.840;2022-10-16T14:16:21;1.53;;;0.90;;
6019;SDS011;3038;51.122;6.840;2022-10-16T14:18:56;1.87;;;1.00;;
6019;SDS011;3038;51.122;6.840;2022-10-16T14:21:24;1.53;;;1.00;;
6019;SDS011;3038;51.122;6.840;2022-10-16T14:23:50;1.37;;;1.00;;
6019;SDS011;3038;51.122;6.840;2022-10-16T14:26:17;6.30;;;2.00;;
6019;SDS011;3038;51.122;6.840;2022-10-16T14:28:45;2.20;;;1.13;;
6019;SDS011;3038;51.122;6.840;2022-10-16T14:31:32;4.67;;;2.10;;
6019;SDS011;3038;51.122;6.840;2022-10-16T14:33:59;2.27;;;1.40;;
6019;SDS011;3038;51.122;6.840;2022-10-16T14:36:25;2.07;;;1.60;;
6019;SDS011;3038;51.122;6.840;2022-10-16T14:41:30;2.50;;;1.60;;
6019;SDS011;3038;51.122;6.840;2022-10-16T14:44:00;2.30;;;1.00;;
6019;SDS011;3038;51.122;6.840;2022-10-16T14:46:38;2.20;;;1.40;;
6019;SDS011;3038;51.122;6.840;2022-10-16T14:51:41;2.27;;;1.57;;
6019;SDS011;3038;51.122;6.840;2022-10-16T14:54:09;2.00;;;1.80;;
6019;SDS011;3038;51.122;6.840;2022-10-16T14:56:44;2.43;;;1.90;;
6019;SDS011;3038;51.122;6.840;2022-10-16T14:59:23;2.60;;;1.60;;
6019;SDS011;3038;51.122;6.840;2022-10-16T15:04:56;8.83;;;1.37;;
6019;SDS011;3038;51.122;6.840;2022-10-16T15:07:22;3.43;;;1.30;;
6019;SDS011;3038;51.122;6.840;2022-10-16T15:09:48;5.77;;;1.60;;
6019;SDS011;3038;51.122;6.840;2022-10-16T15:12:13;2.33;;;1.47;;
6019;SDS011;3038;51.122;6.840;2022-10-16T15:14:39;3.43;;;1.43;;
6019;SDS011;3038;51.122;6.840;2022-10-16T15:17:04;3.53;;;1.13;;
6019;SDS011;3038;51.122;6.840;2022-10-16T15:19:30;3.60;;;2.10;;
6019;SDS011;3038;51.122;6.840;2022-10-16T15:21:55;5.93;;;1.83;;
6019;SDS011;3038;51.122;6.840;2022-10-16T15:24:21;3.10;;;1.67;;
6019;SDS011;3038;51.122;6.840;2022-10-16T15:26:46;2.37;;;1.90;;
6019;SDS011;3038;51.122;6.840;2022-10-16T15:29:12;5.17;;;1.77;;
6019;SDS011;3038;51.122;6.840;2022-10-16T15:31:38;1.90;;;1.60;;
6019;SDS011;3038;51.122;6.840;2022-10-16T15:34:08;3.63;;;1.50;;
6019;SDS011;3038;51.122;6.840;2022-10-16T15:36:34;2.70;;;1.63;;
6019;SDS011;3038;51.122;6.840;2022-10-16T15:39:15;3.20;;;1.60;;
6019;SDS011;3038;51.122;6.840;2022-10-16T15:41:42;5.73;;;2.00;;
6019;SDS011;3038;51.122;6.840;2022-10-16T15:44:09;3.23;;;2.53;;
6019;SDS011;3038;51.122;6.840;2022-10-16T15:46:35;3.10;;;2.53;;
6019;SDS011;3038;51.122;6.840;2022-10-16T15:49:02;2.67;;;2.47;;
6019;SDS011;3038;51.122;6.840;2022-10-16T15:51:27;2.10;;;1.90;;
6019;SDS011;3038;51.122;6.840;2022-10-16T15:53:55;2.10;;;1.90;;
6019;SDS011;3038;51.122;6.840;2022-10-16T15:56:21;4.80;;;1.97;;
6019;SDS011;3038;51.122;6.840;2022-10-16T15:58:49;3.20;;;2.33;;
6019;SDS011;3038;51.122;6.840;2022-10-16T16:01:14;3.67;;;2.10;;
6019;SDS011;3038;51.122;6.840;2022-10-16T16:03:40;4.20;;;1.80;;
6019;SDS011;3038;51.122;6.840;2022-10-16T16:06:06;3.07;;;2.00;;
6019;SDS011;3038;51.122;6.840;2022-10-16T16:08:33;3.77;;;2.03;;
6019;SDS011;3038;51.122;6.840;2022-10-16T16:11:19;3.53;;;2.60;;
6019;SDS011;3038;51.122;6.840;2022-10-16T16:13:44;2.93;;;2.63;;
6019;SDS011;3038;51.122;6.840;2022-10-16T16:16:14;2.13;;;1.93;;
6019;SDS011;3038;51.122;6.840;2022-10-16T16:18:41;2.60;;;2.27;;
6019;SDS011;3038;51.122;6.840;2022-10-16T16:21:07;2.47;;;2.07;;
6019;SDS011;3038;51.122;6.840;2022-10-16T16:23:34;5.60;;;2.50;;
6019;SDS011;3038;51.122;6.840;2022-10-16T16:28:32;2.23;;;1.37;;
6019;SDS011;3038;51.122;6.840;2022-10-16T16:30:58;3.73;;;1.60;;
6019;SDS011;3038;51.122;6.840;2022-10-16T16:33:24;4.63;;;2.30;;
6019;SDS011;3038;51.122;6.840;2022-10-16T16:35:49;5.60;;;2.60;;
6019;SDS011;3038;51.122;6.840;2022-10-16T16:38:14;2.60;;;1.97;;
6019;SDS011;3038;51.122;6.840;2022-10-16T16:40:40;3.00;;;1.70;;
6019;SDS011;3038;51.122;6.840;2022-10-16T16:43:05;2.00;;;1.90;;
6019;SDS011;3038;51.122;6.840;2022-10-16T16:45:30;3.00;;;2.70;;
6019;SDS011;3038;51.122;6.840;2022-10-16T16:48:00;4.10;;;2.50;;
6019;SDS011;3038;51.122;6.840;2022-10-16T16:50:25;5.10;;;2.20;;
6019;SDS011;3038;51.122;6.840;2022-10-16T16:52:50;3.37;;;3.07;;
6019;SDS011;3038;51.122;6.840;2022-10-16T16:55:16;3.30;;;2.20;;
6019;SDS011;3038;51.122;6.840;2022-10-16T16:57:41;2.80;;;2.43;;
6019;SDS011;3038;51.122;6.840;2022-10-16T17:00:07;4.30;;;2.73;;
6019;SDS011;3038;51.122;6.840;2022-10-16T17:02:33;3.20;;;2.43;;
6019;SDS011;3038;51.122;6.840;2022-10-16T17:04:58;4.00;;;2.33;;
6019;SDS011;3038;51.122;6.840;2022-10-16T17:07:24;4.87;;;2.50;;
6019;SDS011;3038;51.122;6.840;2022-10-16T17:09:50;4.17;;;3.23;;
6019;SDS011;3038;51.122;6.840;2022-10-16T17:12:16;5.90;;;3.40;;
6019;SDS011;3038;51.122;6.840;2022-10-16T17:14:41;5.80;;;5.30;;
6019;SDS011;3038;51.122;6.840;2022-10-16T17:17:06;5.80;;;4.67;;
6019;SDS011;3038;51.122;6.840;2022-10-16T17:19:32;4.00;;;3.60;;
6019;SDS011;3038;51.122;6.840;2022-10-16T17:21:57;4.80;;;4.07;;
6019;SDS011;3038;51.122;6.840;2022-10-16T17:24:22;3.97;;;3.60;;
6019;SDS011;3038;51.122;6.840;2022-10-16T17:26:48;3.63;;;3.17;;
6019;SDS011;3038;51.122;6.840;2022-10-16T17:29:14;4.33;;;3.80;;